Airfield :
LOGIN :

Register | Disclaimer

   EN    FR    IT 

 










Legend :    VFR   Marginal VFR   IFR   Intensive IFR   Very Intensive IFR
Visi :
Ceiling :
>= 8 km
>= 3000ft
5 to 8 km
1000 to 3000 ft
1500m to 5 km
500 to 1000 ft
800 to 1500m
200 to 500 ft
< 800m
< 200 ft
Symbols :   Thunderstorms  Fog  Heavy snow  Heavy precipitations  Wind > 20 kt
SIGMETs :     Misc.  Thunderstorms  Icing  Turbulence  Mountain Waves  Volcanic Ashes






- Airport Elevation : 597 ft
- IATA code : PDV


LBPD - Plovdiv

CURRENT METAR :
  • 301000Z AUTO 31014KT 9999 NCD 18/M01 Q1011 NOSIG

EXPIRED METARs :
  • 300930Z AUTO 28014KT 9999 NCD 18/M00 Q1011 NOSIG
  • 300900Z AUTO 29016KT 9999 NCD 18/M01 Q1011 NOSIG
  • 300830Z AUTO 29016KT 9999 NCD 17/M00 Q1011 NOSIG
  • 300800Z AUTO 29016KT 9999 NCD 17/00 Q1011 NOSIG
  • 300730Z AUTO 29016KT 9999 NCD 16/02 Q1011 NOSIG

TAF TAF LBPD
Valid from the 30 at 06:00 until the 31 at 06:00 UTC


300500Z 3006/3106 28010KT CAVOK
BECMG 3018/3020 VRB04KT



MET'MAP, your aeronautical weather chart ! - Copyright ORBIFLY December 2007 - Disclaimer

ORBIFLY MET'MAP TEAM :

Programming & Development : Alexandra Zaïnal
Concept & original design : Baudouin d'Aumeries
Assistance for programming : Marc-Olivier Méhu
Technical & hardware support : Manuel Goepfert

Contact : metmap@orbifly.com




SOURCES & CREDITS :

   NOAA